createdAt,value
2023-06-19T00:00:49.856Z,49.55
2023-06-19T00:03:55.741Z,49.79
2023-06-19T00:07:02.726Z,49.70
2023-06-19T00:13:23.152Z,50.44
2023-06-19T00:16:28.699Z,50.55
2023-06-19T00:19:33.921Z,50.92
2023-06-19T00:22:40.253Z,50.87
2023-06-19T00:25:45.940Z,50.78
2023-06-19T00:28:53.402Z,50.47
2023-06-19T00:32:02.140Z,50.74
2023-06-19T00:35:09.358Z,50.91
2023-06-19T00:38:16.071Z,51.02
2023-06-19T00:41:20.854Z,51.15
2023-06-19T00:44:19.248Z,51.32
2023-06-19T00:47:16.030Z,51.23
2023-06-19T00:50:22.777Z,51.16
2023-06-19T00:53:27.461Z,50.54
2023-06-19T00:56:32.531Z,50.80
2023-06-19T00:59:38.643Z,50.72
2023-06-19T01:02:43.989Z,50.78
2023-06-19T01:05:50.146Z,50.96
2023-06-19T01:09:02.837Z,50.70
2023-06-19T01:12:13.751Z,51.01
2023-06-19T01:15:20.166Z,51.09
2023-06-19T01:18:24.908Z,51.14
2023-06-19T01:21:33.067Z,51.25
2023-06-19T01:24:39.242Z,51.29
2023-06-19T01:27:43.590Z,51.25
2023-06-19T01:30:49.942Z,51.27
2023-06-19T01:33:56.571Z,51.32
2023-06-19T01:37:04.470Z,51.33
2023-06-19T01:40:12.209Z,50.65
2023-06-19T01:43:18.246Z,50.59
2023-06-19T01:46:23.117Z,50.78
2023-06-19T01:49:28.747Z,50.84
2023-06-19T01:52:35.892Z,50.96
2023-06-19T01:55:41.420Z,50.99
2023-06-19T01:58:46.566Z,50.75
2023-06-19T02:01:53.463Z,50.58
2023-06-19T02:05:02.135Z,51.00
2023-06-19T02:08:08.449Z,50.98
2023-06-19T02:11:14.434Z,50.57
2023-06-19T02:14:20.672Z,49.73
2023-06-19T02:17:27.121Z,49.00
2023-06-19T02:20:35.216Z,48.45
2023-06-19T02:23:41.394Z,48.43
2023-06-19T02:26:47.189Z,47.89
2023-06-19T02:29:52.528Z,47.45
2023-06-19T02:32:58.532Z,46.54
2023-06-19T02:36:06.028Z,45.89
2023-06-19T02:39:12.538Z,45.29
2023-06-19T02:42:18.265Z,45.32
2023-06-19T02:45:24.360Z,44.34
2023-06-19T02:48:30.805Z,43.80
2023-06-19T02:51:37.906Z,43.27
2023-06-19T02:54:44.514Z,43.00
2023-06-19T02:57:50.017Z,43.00
2023-06-19T03:00:55.454Z,42.60
2023-06-19T03:04:02.256Z,42.51
2023-06-19T03:07:11.158Z,42.22
2023-06-19T03:10:19.859Z,42.30
2023-06-19T03:13:24.565Z,41.87
2023-06-19T03:16:30.853Z,41.39
2023-06-19T03:19:37.001Z,43.41
2023-06-19T03:22:44.417Z,43.94
2023-06-19T03:25:50.333Z,43.47
2023-06-19T03:28:57.091Z,42.89
2023-06-19T03:32:05.527Z,43.06
2023-06-19T03:35:06.482Z,43.25
2023-06-19T03:38:00.052Z,43.72
2023-06-19T03:41:05.938Z,43.20
2023-06-19T03:44:12.500Z,43.28
2023-06-19T03:47:19.099Z,42.96
2023-06-19T03:50:27.204Z,42.43
2023-06-19T03:53:31.817Z,41.92
2023-06-19T03:56:37.581Z,41.44
2023-06-19T03:59:43.499Z,41.73
2023-06-19T04:02:50.625Z,41.38
2023-06-19T04:05:56.396Z,41.69
2023-06-19T04:09:01.930Z,41.83
2023-06-19T04:12:09.316Z,42.17
2023-06-19T04:15:15.437Z,42.82
2023-06-19T04:18:21.792Z,42.91
2023-06-19T04:21:29.957Z,43.56
2023-06-19T04:24:37.318Z,43.82
2023-06-19T04:27:43.214Z,44.64
2023-06-19T04:30:49.308Z,44.93
2023-06-19T04:33:54.290Z,44.91
2023-06-19T04:37:00.445Z,44.93
2023-06-19T04:40:06.712Z,44.51
2023-06-19T04:43:04.800Z,44.48
2023-06-19T04:46:12.504Z,44.00
2023-06-19T04:49:17.720Z,44.12
2023-06-19T04:52:23.206Z,43.60
2023-06-19T04:55:29.959Z,42.78
2023-06-19T04:58:35.985Z,43.54
2023-06-19T05:01:42.213Z,43.15
2023-06-19T05:04:50.059Z,42.31
2023-06-19T05:07:55.825Z,42.50
2023-06-19T05:11:02.981Z,42.83
2023-06-19T05:14:09.055Z,43.18
2023-06-19T05:17:14.268Z,43.17
2023-06-19T05:20:21.345Z,43.33
2023-06-19T05:23:27.632Z,42.63
2023-06-19T05:26:34.104Z,42.71
2023-06-19T05:29:39.719Z,42.63
2023-06-19T05:32:46.769Z,43.03
2023-06-19T05:35:54.385Z,43.36
2023-06-19T05:39:00.975Z,43.88
2023-06-19T05:42:07.356Z,43.44
2023-06-19T05:45:13.689Z,43.19
2023-06-19T05:48:19.321Z,42.68
2023-06-19T05:51:25.088Z,42.42
2023-06-19T05:54:31.502Z,41.92
2023-06-19T05:57:38.400Z,42.14
2023-06-19T06:00:44.812Z,42.23
2023-06-19T06:03:43.895Z,41.95
2023-06-19T06:06:29.470Z,42.42
2023-06-19T06:09:23.943Z,41.44
2023-06-19T06:12:23.856Z,41.90
2023-06-19T06:15:29.618Z,41.29
2023-06-19T06:18:35.984Z,40.33
2023-06-19T06:21:42.589Z,39.41
2023-06-19T06:24:47.925Z,40.05
2023-06-19T06:27:53.808Z,40.17
2023-06-19T06:31:03.390Z,39.72
2023-06-19T06:34:09.138Z,40.40
2023-06-19T06:37:15.285Z,39.33
2023-06-19T06:40:23.282Z,39.41
2023-06-19T06:43:29.264Z,38.52
2023-06-19T06:46:36.885Z,38.55
2023-06-19T06:49:41.797Z,37.14
2023-06-19T06:52:49.531Z,38.69
2023-06-19T06:55:55.341Z,37.95
2023-06-19T06:59:01.975Z,38.48
2023-06-19T07:02:08.314Z,38.38
2023-06-19T07:05:13.821Z,38.00
2023-06-19T07:08:19.302Z,38.25
2023-06-19T07:11:25.178Z,38.52
2023-06-19T07:14:31.154Z,38.00
2023-06-19T07:17:36.136Z,37.35
2023-06-19T07:20:41.530Z,36.36
2023-06-19T07:23:47.542Z,37.54
2023-06-19T07:26:52.390Z,36.73
2023-06-19T07:29:59.832Z,37.28
2023-06-19T07:33:06.454Z,36.43
2023-06-19T07:36:12.731Z,35.08
2023-06-19T07:39:18.620Z,34.27
2023-06-19T07:42:25.036Z,34.11
2023-06-19T07:45:30.985Z,35.12
2023-06-19T07:48:37.046Z,34.79
2023-06-19T07:51:43.247Z,33.01
2023-06-19T07:55:03.931Z,31.83
2023-06-19T07:58:09.603Z,31.68
2023-06-19T08:01:14.561Z,32.21
2023-06-19T08:04:21.796Z,32.34
2023-06-19T08:07:28.121Z,32.56
2023-06-19T08:10:46.802Z,31.78
2023-06-19T08:13:51.788Z,31.97
2023-06-19T08:16:57.769Z,34.06
2023-06-19T08:20:02.863Z,33.55
2023-06-19T08:23:09.163Z,32.66
2023-06-19T08:26:16.268Z,33.42
2023-06-19T08:29:21.169Z,34.09
2023-06-19T08:32:26.276Z,33.26
2023-06-19T08:35:31.566Z,33.47
2023-06-19T08:38:35.925Z,33.15
2023-06-19T08:41:42.470Z,33.66
2023-06-19T08:44:48.689Z,33.36
2023-06-19T08:47:53.981Z,33.23
2023-06-19T08:51:01.481Z,33.42
2023-06-19T08:54:14.488Z,32.31
2023-06-19T08:57:21.778Z,32.19
2023-06-19T09:00:30.375Z,32.46
2023-06-19T09:03:39.513Z,31.21
2023-06-19T09:06:46.241Z,31.45
2023-06-19T09:09:51.994Z,31.25
2023-06-19T09:13:12.377Z,32.35
2023-06-19T09:16:23.178Z,33.10
2023-06-19T09:19:30.288Z,32.90
2023-06-19T09:22:38.092Z,33.04
2023-06-19T09:25:35.830Z,32.00
2023-06-19T09:28:39.256Z,32.25
2023-06-19T09:31:43.839Z,31.57
2023-06-19T09:34:48.961Z,31.49
2023-06-19T09:37:55.915Z,31.16
2023-06-19T09:41:03.600Z,31.74
2023-06-19T09:44:08.049Z,31.97
2023-06-19T09:47:01.521Z,31.58
2023-06-19T09:50:11.089Z,32.01
2023-06-19T09:53:18.562Z,32.33
2023-06-19T09:56:23.828Z,32.82
2023-06-19T09:59:29.942Z,31.57
2023-06-19T10:02:36.644Z,31.48
2023-06-19T10:05:48.586Z,31.45
2023-06-19T10:08:58.966Z,31.45
2023-06-19T10:12:06.777Z,30.80
2023-06-19T10:15:13.369Z,30.99
2023-06-19T10:18:19.769Z,31.71
2023-06-19T10:21:34.804Z,31.09
2023-06-19T10:24:42.213Z,30.66
2023-06-19T10:27:55.181Z,30.65
2023-06-19T10:31:03.321Z,31.01
2023-06-19T10:34:09.849Z,30.41
2023-06-19T10:37:16.217Z,31.19
2023-06-19T10:40:23.527Z,31.85
2023-06-19T10:43:36.899Z,31.53
2023-06-19T10:46:50.324Z,31.33
2023-06-19T10:49:55.559Z,31.48
2023-06-19T10:53:02.253Z,32.06
2023-06-19T10:56:12.706Z,31.24
2023-06-19T10:59:22.654Z,31.00
2023-06-19T11:02:28.137Z,30.00
2023-06-19T11:05:36.063Z,31.00
2023-06-19T11:08:35.832Z,30.66
2023-06-19T11:11:35.195Z,30.63
2023-06-19T11:14:46.911Z,30.53
2023-06-19T11:17:52.778Z,31.13
2023-06-19T11:21:07.108Z,31.07
2023-06-19T11:24:16.826Z,30.35
2023-06-19T11:27:24.329Z,29.80
2023-06-19T11:30:29.733Z,30.14
2023-06-19T11:33:37.713Z,29.95
2023-06-19T11:36:44.087Z,30.21
2023-06-19T11:39:49.693Z,29.79
2023-06-19T11:43:08.714Z,30.15
2023-06-19T11:46:24.014Z,30.98
2023-06-19T11:49:32.924Z,31.44
2023-06-19T11:52:38.077Z,30.74
2023-06-19T11:55:44.333Z,30.70
2023-06-19T11:58:52.322Z,30.33
2023-06-19T12:01:58.613Z,31.18
2023-06-19T12:05:05.221Z,30.09
2023-06-19T12:08:12.421Z,30.63
2023-06-19T12:11:18.398Z,30.97
2023-06-19T12:14:24.573Z,31.28
2023-06-19T12:17:30.168Z,31.33
2023-06-19T12:20:36.146Z,30.41
2023-06-19T12:23:41.697Z,31.10
2023-06-19T12:26:49.198Z,31.34
2023-06-19T12:29:54.239Z,30.56
2023-06-19T12:33:00.201Z,30.30
2023-06-19T12:36:05.733Z,30.58
2023-06-19T12:39:14.402Z,30.23
2023-06-19T12:42:20.864Z,31.10
2023-06-19T12:45:26.184Z,31.54
2023-06-19T12:48:31.318Z,31.29
2023-06-19T12:51:38.691Z,31.48
2023-06-19T12:54:45.291Z,30.46
2023-06-19T12:57:52.713Z,30.57
2023-06-19T13:00:59.091Z,30.16
2023-06-19T13:04:06.380Z,31.12
2023-06-19T13:07:11.920Z,31.17
2023-06-19T13:10:26.471Z,30.59
2023-06-19T13:13:32.835Z,30.32
2023-06-19T13:19:46.604Z,30.09
2023-06-19T13:22:53.320Z,29.92
2023-06-19T13:25:59.205Z,30.86
2023-06-19T13:29:06.764Z,31.07
2023-06-19T13:32:12.490Z,30.72
2023-06-19T13:35:18.430Z,30.62
2023-06-19T13:38:24.101Z,30.60
2023-06-19T13:41:31.572Z,30.93
2023-06-19T13:44:36.814Z,31.38
2023-06-19T13:47:42.546Z,30.60
2023-06-19T13:50:48.052Z,30.97
2023-06-19T13:53:54.510Z,30.28
2023-06-19T13:57:00.070Z,30.68
2023-06-19T14:00:06.301Z,30.78
2023-06-19T14:03:15.221Z,31.27
2023-06-19T14:06:22.500Z,30.51
2023-06-19T14:09:32.078Z,30.63
2023-06-19T14:12:30.207Z,30.73
2023-06-19T14:15:37.466Z,31.22
2023-06-19T14:18:45.137Z,31.27
2023-06-19T14:21:50.160Z,31.15
2023-06-19T14:24:56.189Z,30.18
2023-06-19T14:28:03.289Z,30.80
2023-06-19T14:31:09.445Z,30.56
2023-06-19T14:34:14.753Z,30.79
2023-06-19T14:37:21.434Z,30.11
2023-06-19T14:40:27.212Z,30.35
2023-06-19T14:43:26.598Z,30.42
2023-06-19T14:46:38.511Z,30.42
2023-06-19T14:49:39.498Z,30.23
2023-06-19T14:52:45.996Z,30.16
2023-06-19T14:55:53.246Z,29.88
2023-06-19T14:58:59.329Z,29.60
2023-06-19T15:01:59.406Z,30.34
2023-06-19T15:05:07.213Z,30.73
2023-06-19T15:08:13.830Z,29.74
2023-06-19T15:11:20.694Z,29.33
2023-06-19T15:14:26.624Z,29.71
2023-06-19T15:17:32.264Z,29.55
2023-06-19T15:20:38.964Z,29.18
2023-06-19T15:23:45.419Z,29.80
2023-06-19T15:26:53.434Z,29.19
2023-06-19T15:29:58.713Z,28.63
2023-06-19T15:33:06.215Z,28.78
2023-06-19T15:36:11.898Z,28.90
2023-06-19T15:39:18.065Z,29.11
2023-06-19T15:42:23.579Z,29.01
2023-06-19T15:45:28.935Z,29.35
2023-06-19T15:48:36.714Z,29.87
2023-06-19T15:51:43.127Z,30.14
2023-06-19T15:54:48.595Z,30.68
2023-06-19T15:57:55.054Z,30.07
2023-06-19T16:01:01.308Z,30.14
2023-06-19T16:04:06.877Z,30.08
2023-06-19T16:07:12.155Z,30.61
2023-06-19T16:10:25.549Z,30.68
2023-06-19T16:13:31.052Z,30.96
2023-06-19T16:16:38.367Z,31.07
2023-06-19T16:19:44.727Z,31.13
2023-06-19T16:22:43.948Z,31.50
2023-06-19T16:25:50.024Z,31.43
2023-06-19T16:28:54.811Z,31.67
2023-06-19T16:32:09.716Z,31.71
2023-06-19T16:35:09.095Z,31.63
2023-06-19T16:38:15.665Z,31.72
2023-06-19T16:41:21.427Z,32.18
2023-06-19T16:44:27.179Z,32.29
2023-06-19T16:47:35.016Z,32.74
2023-06-19T16:50:43.885Z,33.01
2023-06-19T16:53:51.358Z,33.38
2023-06-19T16:56:55.713Z,33.55
2023-06-19T17:00:01.274Z,33.79
2023-06-19T17:03:09.017Z,33.93
2023-06-19T17:06:08.806Z,34.31
2023-06-19T17:09:14.228Z,34.72
2023-06-19T17:12:19.989Z,35.01
2023-06-19T17:15:25.542Z,35.17
2023-06-19T17:18:31.511Z,35.34
2023-06-19T17:21:37.276Z,35.63
2023-06-19T17:24:44.039Z,36.07
2023-06-19T17:27:49.380Z,36.38
2023-06-19T17:30:56.092Z,36.32
2023-06-19T17:34:02.449Z,36.77
2023-06-19T17:37:09.868Z,36.92
2023-06-19T17:40:17.145Z,36.97
2023-06-19T17:43:15.263Z,37.06
2023-06-19T17:46:09.348Z,37.70
2023-06-19T17:49:15.954Z,38.15
2023-06-19T17:52:21.963Z,38.73
2023-06-19T17:55:26.724Z,39.00
2023-06-19T17:58:34.399Z,39.72
2023-06-19T18:01:39.685Z,40.21
2023-06-19T18:04:46.267Z,41.21
2023-06-19T18:07:52.045Z,41.41
2023-06-19T18:10:57.638Z,41.95
2023-06-19T18:14:03.334Z,42.21
2023-06-19T18:17:10.442Z,42.72
2023-06-19T18:20:16.108Z,43.38
2023-06-19T18:23:21.372Z,43.77
2023-06-19T18:26:26.548Z,43.69
2023-06-19T18:29:33.184Z,43.76
2023-06-19T18:32:38.771Z,44.18
2023-06-19T18:35:44.539Z,44.69
2023-06-19T18:38:50.074Z,45.07
2023-06-19T18:41:55.802Z,45.53
2023-06-19T18:45:01.649Z,45.38
2023-06-19T18:48:07.718Z,45.25
2023-06-19T18:51:13.107Z,45.20
2023-06-19T18:54:19.027Z,45.72
2023-06-19T18:57:24.766Z,45.71
2023-06-19T19:00:34.176Z,45.77
2023-06-19T19:03:40.366Z,45.90
2023-06-19T19:06:46.923Z,46.07
2023-06-19T19:09:53.290Z,46.19
2023-06-19T19:13:00.395Z,46.27
2023-06-19T19:16:06.221Z,46.33
2023-06-19T19:19:12.914Z,46.16
2023-06-19T19:22:17.696Z,46.23
2023-06-19T19:25:22.738Z,46.51
2023-06-19T19:28:30.444Z,46.77
2023-06-19T19:31:36.708Z,46.79
2023-06-19T19:34:41.616Z,46.93
2023-06-19T19:37:47.458Z,47.12
2023-06-19T19:40:53.686Z,47.17
2023-06-19T19:43:59.375Z,47.46
2023-06-19T19:47:05.290Z,47.38
2023-06-19T19:50:13.838Z,47.56
2023-06-19T19:53:19.881Z,47.81
2023-06-19T19:56:26.264Z,48.08
2023-06-19T19:59:32.042Z,48.12
2023-06-19T20:02:37.702Z,48.21
2023-06-19T20:05:43.265Z,48.27
2023-06-19T20:08:51.713Z,48.04
2023-06-19T20:12:12.175Z,48.05
2023-06-19T20:15:05.775Z,48.02
2023-06-19T20:18:10.607Z,47.93
2023-06-19T20:21:15.400Z,48.07
2023-06-19T20:24:20.392Z,48.05
2023-06-19T20:27:26.968Z,48.08
2023-06-19T20:30:25.436Z,47.83
2023-06-19T20:33:23.996Z,47.77
2023-06-19T20:36:29.902Z,47.66
2023-06-19T20:39:34.730Z,47.58
2023-06-19T20:42:40.605Z,47.43
2023-06-19T20:45:48.497Z,47.56
2023-06-19T20:48:55.800Z,47.75
2023-06-19T20:52:02.404Z,47.46
2023-06-19T20:55:07.637Z,47.53
2023-06-19T20:58:13.541Z,47.57
2023-06-19T21:01:20.572Z,47.57
2023-06-19T21:04:26.422Z,48.06
2023-06-19T21:07:32.978Z,48.49
2023-06-19T21:10:38.572Z,48.55
2023-06-19T21:13:45.412Z,48.60
2023-06-19T21:16:51.358Z,48.74
2023-06-19T21:19:57.491Z,48.66
2023-06-19T21:23:06.276Z,49.14
2023-06-19T21:26:11.858Z,49.34
2023-06-19T21:29:18.039Z,49.41
2023-06-19T21:32:24.421Z,49.58
2023-06-19T21:35:30.142Z,49.86
2023-06-19T21:38:39.061Z,49.87
2023-06-19T21:41:45.400Z,49.61
2023-06-19T21:44:51.587Z,49.68
2023-06-19T21:47:58.252Z,49.63
2023-06-19T21:51:03.344Z,49.34
2023-06-19T21:54:09.314Z,49.21
2023-06-19T21:57:15.133Z,49.34
2023-06-19T22:00:22.691Z,49.46
2023-06-19T22:03:28.662Z,49.55
2023-06-19T22:06:33.926Z,49.48
2023-06-19T22:09:38.703Z,49.45
2023-06-19T22:12:45.266Z,49.08
2023-06-19T22:15:51.066Z,49.00
2023-06-19T22:18:56.791Z,49.64
2023-06-19T22:22:01.741Z,50.08
2023-06-19T22:25:06.863Z,50.57
2023-06-19T22:28:13.560Z,50.71
2023-06-19T22:31:19.224Z,51.09
2023-06-19T22:34:24.419Z,51.07
2023-06-19T22:37:30.284Z,51.50
2023-06-19T22:40:35.641Z,51.56
2023-06-19T22:43:41.679Z,51.92
2023-06-19T22:46:48.251Z,52.31
2023-06-19T22:49:54.132Z,52.45
2023-06-19T22:53:00.051Z,52.41
2023-06-19T22:56:05.048Z,52.37
2023-06-19T22:59:10.863Z,52.49
2023-06-19T23:02:16.732Z,53.10
2023-06-19T23:05:24.537Z,52.93
2023-06-19T23:08:30.883Z,53.18
2023-06-19T23:11:37.815Z,53.27
2023-06-19T23:14:44.818Z,53.05
2023-06-19T23:17:51.388Z,53.20
2023-06-19T23:20:56.984Z,53.01
2023-06-19T23:24:03.866Z,53.37
2023-06-19T23:27:10.494Z,53.21
2023-06-19T23:30:10.516Z,52.88
2023-06-19T23:33:17.478Z,52.70
2023-06-19T23:36:22.513Z,53.03
2023-06-19T23:39:27.536Z,53.04
2023-06-19T23:42:32.480Z,53.11
2023-06-19T23:45:40.059Z,52.64
2023-06-19T23:48:46.103Z,52.48
2023-06-19T23:51:53.327Z,52.27
2023-06-19T23:55:00.396Z,52.33
2023-06-19T23:58:06.941Z,52.17
